createdAt,value
2022-11-26T00:00:47.111Z,81.53
2022-11-26T00:03:29.890Z,89.13
2022-11-26T00:05:57.426Z,82.77
2022-11-26T00:08:34.711Z,86.43
2022-11-26T00:11:01.976Z,85.07
2022-11-26T00:13:30.301Z,85.43
2022-11-26T00:15:56.988Z,76.03
2022-11-26T00:18:25.806Z,82.70
2022-11-26T00:20:58.972Z,83.30
2022-11-26T00:23:27.695Z,83.53
2022-11-26T00:25:57.527Z,81.80
2022-11-26T00:28:23.674Z,80.07
2022-11-26T00:30:50.183Z,85.37
2022-11-26T00:33:16.204Z,78.90
2022-11-26T00:35:42.644Z,77.13
2022-11-26T00:38:15.968Z,77.00
2022-11-26T00:40:42.493Z,80.33
2022-11-26T00:43:13.167Z,82.53
2022-11-26T00:45:39.913Z,75.80
2022-11-26T00:48:06.223Z,70.97
2022-11-26T00:50:38.210Z,79.20
2022-11-26T00:53:05.704Z,78.27
2022-11-26T00:55:44.393Z,78.53
2022-11-26T00:58:26.288Z,79.80
2022-11-26T01:00:55.004Z,82.97
2022-11-26T01:03:21.498Z,75.97
2022-11-26T01:05:56.659Z,81.37
2022-11-26T01:08:40.957Z,88.73
2022-11-26T01:11:11.934Z,79.60
2022-11-26T01:13:38.127Z,84.20
2022-11-26T01:16:15.573Z,77.20
2022-11-26T01:18:41.720Z,81.37
2022-11-26T01:21:11.272Z,80.53
2022-11-26T01:23:38.369Z,79.33
2022-11-26T01:26:06.679Z,87.87
2022-11-26T01:28:32.898Z,79.63
2022-11-26T01:30:59.245Z,84.17
2022-11-26T01:33:25.335Z,86.47
2022-11-26T01:35:51.707Z,76.37
2022-11-26T01:38:17.917Z,83.20
2022-11-26T01:41:00.257Z,90.93
2022-11-26T01:43:31.984Z,98.20
2022-11-26T01:45:58.571Z,101.07
2022-11-26T01:48:33.391Z,102.00
2022-11-26T01:51:08.097Z,114.10
2022-11-26T01:54:00.376Z,103.80
2022-11-26T01:56:41.473Z,105.60
2022-11-26T01:59:18.439Z,100.93
2022-11-26T02:01:45.191Z,95.53
2022-11-26T02:04:16.627Z,93.87
2022-11-26T02:06:46.046Z,103.67
2022-11-26T02:09:12.291Z,98.00
2022-11-26T02:11:39.392Z,101.80
2022-11-26T02:14:09.824Z,96.77
2022-11-26T02:16:39.142Z,99.07
2022-11-26T02:19:21.646Z,92.37
2022-11-26T02:21:55.552Z,95.67
2022-11-26T02:24:45.277Z,95.40
2022-11-26T02:27:17.957Z,92.23
2022-11-26T02:29:56.230Z,81.23
2022-11-26T02:32:29.391Z,82.93
2022-11-26T02:35:03.901Z,85.17
2022-11-26T02:37:47.695Z,85.90
2022-11-26T02:40:14.603Z,85.77
2022-11-26T02:42:41.573Z,85.03
2022-11-26T02:45:13.725Z,84.83
2022-11-26T02:47:44.160Z,82.10
2022-11-26T02:50:18.179Z,87.03
2022-11-26T02:52:48.292Z,79.80
2022-11-26T02:55:16.006Z,79.77
2022-11-26T02:57:47.054Z,77.63
2022-11-26T03:00:14.712Z,84.00
2022-11-26T03:02:53.707Z,85.57
2022-11-26T03:05:20.393Z,84.77
2022-11-26T03:07:50.794Z,78.83
2022-11-26T03:10:19.528Z,81.80
2022-11-26T03:12:46.815Z,82.97
2022-11-26T03:15:13.096Z,88.17
2022-11-26T03:17:39.517Z,86.50
2022-11-26T03:20:06.517Z,81.47
2022-11-26T03:22:33.100Z,82.33
2022-11-26T03:24:59.249Z,83.27
2022-11-26T03:27:25.656Z,83.30
2022-11-26T03:29:51.779Z,86.33
2022-11-26T03:32:18.193Z,84.70
2022-11-26T03:34:44.260Z,84.40
2022-11-26T03:37:10.817Z,89.70
2022-11-26T03:39:36.947Z,84.87
2022-11-26T03:42:03.513Z,84.93
2022-11-26T03:44:29.655Z,87.77
2022-11-26T03:46:56.001Z,99.87
2022-11-26T03:49:22.069Z,81.43
2022-11-26T03:51:48.466Z,96.83
2022-11-26T03:54:14.752Z,92.77
2022-11-26T03:56:41.195Z,88.33
2022-11-26T03:59:07.356Z,86.20
2022-11-26T04:01:33.873Z,83.60
2022-11-26T04:04:00.092Z,85.23
2022-11-26T04:06:26.454Z,79.73
2022-11-26T04:08:52.652Z,84.97
2022-11-26T04:11:19.122Z,85.90
2022-11-26T04:13:45.258Z,86.53
2022-11-26T04:16:11.812Z,79.03
2022-11-26T04:18:37.992Z,87.27
2022-11-26T04:21:07.470Z,80.20
2022-11-26T04:23:34.737Z,81.10
2022-11-26T04:26:01.376Z,86.10
2022-11-26T04:28:28.703Z,82.27
2022-11-26T04:30:55.082Z,75.30
2022-11-26T04:33:21.265Z,98.83
2022-11-26T04:35:49.699Z,111.50
2022-11-26T04:38:15.861Z,86.80
2022-11-26T04:40:42.670Z,92.50
2022-11-26T04:43:09.017Z,88.50
2022-11-26T04:45:35.411Z,91.63
2022-11-26T04:48:01.671Z,90.77
2022-11-26T04:50:28.164Z,92.33
2022-11-26T04:52:54.256Z,97.80
2022-11-26T04:55:20.660Z,167.20
2022-11-26T04:57:47.864Z,279.23
2022-11-26T05:00:15.995Z,338.83
2022-11-26T05:02:42.428Z,135.63
2022-11-26T05:05:09.218Z,112.50
2022-11-26T05:07:35.609Z,97.77
2022-11-26T05:10:05.698Z,95.83
2022-11-26T05:12:31.953Z,83.10
2022-11-26T05:14:58.359Z,92.60
2022-11-26T05:17:24.474Z,87.67
2022-11-26T05:19:50.870Z,91.77
2022-11-26T05:22:17.052Z,84.83
2022-11-26T05:24:43.564Z,80.70
2022-11-26T05:27:09.807Z,93.90
2022-11-26T05:29:36.368Z,82.80
2022-11-26T05:32:02.686Z,74.13
2022-11-26T05:34:29.525Z,74.23
2022-11-26T05:36:55.865Z,73.90
2022-11-26T05:39:22.423Z,69.97
2022-11-26T05:41:48.606Z,79.13
2022-11-26T05:44:15.203Z,159.87
2022-11-26T05:46:42.516Z,128.47
2022-11-26T05:49:09.312Z,106.00
2022-11-26T05:51:35.523Z,182.93
2022-11-26T05:54:02.647Z,188.33
2022-11-26T05:56:29.153Z,155.70
2022-11-26T05:58:55.752Z,126.47
2022-11-26T06:01:22.183Z,111.13
2022-11-26T06:03:48.846Z,95.47
2022-11-26T06:06:15.162Z,141.30
2022-11-26T06:08:41.646Z,82.10
2022-11-26T06:11:11.706Z,75.80
2022-11-26T06:13:39.008Z,68.63
2022-11-26T06:16:05.667Z,66.80
2022-11-26T06:18:32.094Z,68.43
2022-11-26T06:21:03.120Z,61.00
2022-11-26T06:23:31.375Z,61.30
2022-11-26T06:25:57.657Z,63.57
2022-11-26T06:28:24.118Z,62.10
2022-11-26T06:30:50.525Z,67.13
2022-11-26T06:33:17.206Z,64.63
2022-11-26T06:35:43.527Z,66.50
2022-11-26T06:38:10.329Z,66.33
2022-11-26T06:40:36.754Z,89.13
2022-11-26T06:43:03.280Z,81.80
2022-11-26T06:45:30.247Z,94.67
2022-11-26T06:47:57.106Z,97.57
2022-11-26T06:50:23.233Z,119.77
2022-11-26T06:52:53.791Z,76.17
2022-11-26T06:55:21.204Z,161.23
2022-11-26T06:57:51.837Z,221.10
2022-11-26T07:00:18.522Z,293.77
2022-11-26T07:02:45.982Z,291.63
2022-11-26T07:05:13.114Z,143.23
2022-11-26T07:07:40.044Z,82.13
2022-11-26T07:10:07.565Z,101.10
2022-11-26T07:12:34.065Z,92.97
2022-11-26T07:15:00.603Z,94.23
2022-11-26T07:17:28.127Z,144.57
2022-11-26T07:19:55.160Z,91.07
2022-11-26T07:22:22.215Z,107.07
2022-11-26T07:24:48.662Z,133.70
2022-11-26T07:27:15.113Z,82.67
2022-11-26T07:29:41.840Z,61.43
2022-11-26T07:32:08.525Z,65.93
2022-11-26T07:34:35.196Z,53.13
2022-11-26T07:37:01.849Z,53.47
2022-11-26T07:39:28.239Z,60.07
2022-11-26T07:41:54.974Z,55.87
2022-11-26T07:44:21.371Z,59.67
2022-11-26T07:46:47.996Z,59.20
2022-11-26T07:49:14.213Z,60.90
2022-11-26T07:51:41.370Z,61.50
2022-11-26T07:54:07.889Z,66.00
2022-11-26T07:56:35.114Z,61.93
2022-11-26T07:59:01.870Z,69.63
2022-11-26T08:01:29.142Z,68.93
2022-11-26T08:03:56.688Z,70.17
2022-11-26T08:06:28.193Z,61.87
2022-11-26T08:08:55.251Z,60.87
2022-11-26T08:11:24.487Z,58.47
2022-11-26T08:13:59.693Z,67.13
2022-11-26T08:16:29.119Z,91.07
2022-11-26T08:18:57.884Z,84.63
2022-11-26T08:21:25.469Z,102.93
2022-11-26T08:23:53.390Z,79.30
2022-11-26T08:26:25.103Z,72.87
2022-11-26T08:28:58.233Z,148.67
2022-11-26T08:31:26.790Z,71.97
2022-11-26T08:33:56.777Z,73.13
2022-11-26T08:36:23.429Z,83.63
2022-11-26T08:38:50.079Z,72.83
2022-11-26T08:41:16.863Z,72.60
2022-11-26T08:46:30.612Z,76.60
2022-11-26T08:48:57.730Z,68.07
2022-11-26T08:51:24.696Z,74.70
2022-11-26T08:53:51.207Z,76.07
2022-11-26T08:56:17.976Z,78.13
2022-11-26T08:58:45.107Z,70.70
2022-11-26T09:01:13.948Z,69.10
2022-11-26T09:03:40.309Z,78.93
2022-11-26T09:06:08.017Z,88.53
2022-11-26T09:08:55.466Z,84.30
2022-11-26T09:11:22.993Z,76.37
2022-11-26T09:13:49.164Z,70.77
2022-11-26T09:16:19.943Z,69.60
2022-11-26T09:18:50.651Z,75.30
2022-11-26T09:21:18.794Z,78.73
2022-11-26T09:23:46.432Z,72.00
2022-11-26T09:26:13.357Z,64.17
2022-11-26T09:28:42.075Z,134.50
2022-11-26T09:31:16.976Z,137.23
2022-11-26T09:33:55.135Z,87.67
2022-11-26T09:36:22.076Z,78.60
2022-11-26T09:38:48.269Z,83.70
2022-11-26T09:41:33.243Z,77.50
2022-11-26T09:44:18.188Z,75.67
2022-11-26T09:47:13.589Z,73.60
2022-11-26T09:50:16.823Z,71.20
2022-11-26T09:53:03.583Z,68.00
2022-11-26T09:55:53.525Z,71.10
2022-11-26T09:58:26.989Z,69.63
2022-11-26T10:00:59.388Z,78.03
2022-11-26T10:03:37.175Z,75.53
2022-11-26T10:06:29.247Z,72.60
2022-11-26T10:09:16.257Z,69.07
2022-11-26T10:12:24.920Z,69.83
2022-11-26T10:15:19.850Z,75.97
2022-11-26T10:18:17.379Z,84.03
2022-11-26T10:21:02.075Z,81.00
2022-11-26T10:23:44.815Z,76.23
2022-11-26T10:26:23.296Z,85.60
2022-11-26T10:28:59.048Z,80.77
2022-11-26T10:31:30.480Z,85.07
2022-11-26T10:34:04.389Z,78.43
2022-11-26T10:36:38.641Z,75.27
2022-11-26T10:39:06.644Z,74.73
2022-11-26T10:41:35.283Z,72.50
2022-11-26T10:44:34.055Z,67.40
2022-11-26T10:47:20.979Z,62.93
2022-11-26T10:49:48.757Z,56.90
2022-11-26T10:52:20.277Z,57.83
2022-11-26T10:54:46.689Z,50.20
2022-11-26T10:57:21.179Z,54.40
2022-11-26T10:59:51.343Z,48.33
2022-11-26T11:02:38.765Z,48.93
2022-11-26T11:05:08.301Z,54.37
2022-11-26T11:07:37.955Z,46.73
2022-11-26T11:10:07.719Z,50.13
2022-11-26T11:12:35.721Z,54.50
2022-11-26T11:15:17.260Z,46.73
2022-11-26T11:17:45.762Z,57.23
2022-11-26T11:20:15.249Z,47.87
2022-11-26T11:22:43.790Z,48.67
2022-11-26T11:25:24.599Z,45.70
2022-11-26T11:27:53.810Z,48.50
2022-11-26T11:30:24.846Z,45.93
2022-11-26T11:32:56.644Z,48.17
2022-11-26T11:35:30.342Z,49.67
2022-11-26T11:37:58.092Z,53.60
2022-11-26T11:40:28.413Z,51.00
2022-11-26T11:43:06.354Z,43.20
2022-11-26T11:45:34.196Z,44.93
2022-11-26T11:48:15.640Z,49.63
2022-11-26T11:50:49.477Z,57.90
2022-11-26T11:53:32.586Z,65.90
2022-11-26T11:56:16.751Z,60.20
2022-11-26T11:59:07.971Z,60.57
2022-11-26T12:02:00.168Z,64.17
2022-11-26T12:04:48.674Z,61.33
2022-11-26T12:07:51.943Z,66.70
2022-11-26T12:10:35.765Z,62.47
2022-11-26T12:13:06.381Z,65.43
2022-11-26T12:15:54.647Z,74.97
2022-11-26T12:18:46.065Z,80.57
2022-11-26T12:21:15.716Z,71.07
2022-11-26T12:23:56.148Z,68.17
2022-11-26T12:26:42.054Z,96.30
2022-11-26T12:29:41.213Z,72.30
2022-11-26T12:32:16.641Z,88.77
2022-11-26T12:34:52.086Z,96.20
2022-11-26T12:37:23.495Z,63.87
2022-11-26T12:40:07.338Z,66.07
2022-11-26T12:42:48.743Z,70.37
2022-11-26T12:45:38.268Z,81.97
2022-11-26T12:48:41.707Z,65.60
2022-11-26T12:51:19.784Z,51.67
2022-11-26T12:54:04.589Z,46.43
2022-11-26T12:56:33.989Z,43.40
2022-11-26T12:59:17.566Z,45.43
2022-11-26T13:01:44.008Z,43.47
2022-11-26T13:07:03.265Z,47.93
2022-11-26T13:10:00.406Z,48.83
2022-11-26T13:12:41.752Z,46.03
2022-11-26T13:15:57.784Z,53.53
2022-11-26T13:18:38.120Z,78.90
2022-11-26T13:21:38.564Z,68.90
2022-11-26T13:24:04.913Z,70.10
2022-11-26T13:26:53.495Z,45.07
2022-11-26T13:29:35.152Z,47.90
2022-11-26T13:32:26.568Z,48.57
2022-11-26T13:34:55.714Z,51.67
2022-11-26T13:37:24.968Z,42.43
2022-11-26T13:40:06.517Z,39.93
2022-11-26T13:42:52.457Z,41.73
2022-11-26T13:45:43.244Z,40.50
2022-11-26T13:48:19.967Z,41.07
2022-11-26T13:50:58.999Z,45.17
2022-11-26T13:53:42.248Z,45.13
2022-11-26T13:56:10.863Z,47.67
2022-11-26T13:58:51.403Z,64.43
2022-11-26T14:01:36.161Z,48.13
2022-11-26T14:04:07.104Z,42.20
2022-11-26T14:06:34.440Z,53.20
2022-11-26T14:09:01.115Z,79.93
2022-11-26T14:11:39.845Z,143.87
2022-11-26T14:14:24.618Z,171.53
2022-11-26T14:17:12.782Z,55.13
2022-11-26T14:19:39.272Z,72.73
2022-11-26T14:22:33.470Z,66.17
2022-11-26T14:25:42.877Z,62.23
2022-11-26T14:28:09.168Z,62.70
2022-11-26T14:30:35.738Z,51.67
2022-11-26T14:33:11.148Z,53.90
2022-11-26T14:35:39.191Z,54.63
2022-11-26T14:38:21.584Z,53.90
2022-11-26T14:41:00.887Z,60.30
2022-11-26T14:43:28.293Z,59.40
2022-11-26T14:46:15.769Z,50.73
2022-11-26T14:48:45.703Z,61.37
2022-11-26T14:51:22.383Z,53.07
2022-11-26T14:53:50.123Z,61.70
2022-11-26T14:56:19.191Z,49.10
2022-11-26T14:58:51.028Z,56.47
2022-11-26T15:01:23.789Z,54.70
2022-11-26T15:03:54.658Z,60.10
2022-11-26T15:06:42.212Z,68.57
2022-11-26T15:09:15.756Z,69.27
2022-11-26T15:11:47.406Z,59.63
2022-11-26T15:14:25.906Z,56.37
2022-11-26T15:16:55.934Z,56.10
2022-11-26T15:19:22.773Z,45.10
2022-11-26T15:21:51.395Z,44.30
2022-11-26T15:24:17.772Z,63.20
2022-11-26T15:26:45.852Z,66.37
2022-11-26T15:29:35.901Z,56.23
2022-11-26T15:32:03.925Z,70.60
2022-11-26T15:34:32.209Z,59.07
2022-11-26T15:36:59.317Z,55.50
2022-11-26T15:39:30.636Z,56.57
2022-11-26T15:42:03.279Z,46.67
2022-11-26T15:44:31.254Z,56.07
2022-11-26T15:47:00.186Z,52.53
2022-11-26T15:49:39.592Z,52.80
2022-11-26T15:52:10.760Z,53.87
2022-11-26T15:57:32.182Z,48.13
2022-11-26T16:00:27.587Z,55.23
2022-11-26T16:02:54.342Z,57.10
2022-11-26T16:05:38.118Z,50.87
2022-11-26T16:08:22.552Z,52.93
2022-11-26T16:10:57.045Z,43.30
2022-11-26T16:13:31.860Z,53.53
2022-11-26T16:16:09.556Z,49.27
2022-11-26T16:18:53.274Z,47.43
2022-11-26T16:21:23.614Z,55.47
2022-11-26T16:24:04.841Z,47.23
2022-11-26T16:26:53.123Z,46.47
2022-11-26T16:29:19.594Z,49.00
2022-11-26T16:31:46.719Z,50.03
2022-11-26T16:34:13.119Z,49.80
2022-11-26T16:36:41.520Z,48.77
2022-11-26T16:39:10.998Z,55.30
2022-11-26T16:41:38.628Z,51.70
2022-11-26T16:44:05.129Z,50.30
2022-11-26T16:46:35.254Z,48.13
2022-11-26T16:49:03.984Z,52.60
2022-11-26T16:51:30.368Z,51.73
2022-11-26T16:53:57.053Z,52.20
2022-11-26T16:56:36.704Z,55.20
2022-11-26T16:59:18.665Z,92.43
2022-11-26T17:01:45.175Z,143.33
2022-11-26T17:04:13.153Z,58.30
2022-11-26T17:06:40.621Z,60.50
2022-11-26T17:09:16.942Z,52.43
2022-11-26T17:11:43.432Z,59.70
2022-11-26T17:14:10.945Z,56.07
2022-11-26T17:16:39.596Z,53.00
2022-11-26T17:19:13.694Z,57.73
2022-11-26T17:21:41.378Z,61.83
2022-11-26T17:24:08.151Z,55.87
2022-11-26T17:26:34.544Z,54.93
2022-11-26T17:29:01.499Z,52.50
2022-11-26T17:31:29.070Z,59.63
2022-11-26T17:33:57.190Z,59.33
2022-11-26T17:36:23.754Z,51.43
2022-11-26T17:38:50.953Z,60.23
2022-11-26T17:41:18.969Z,62.00
2022-11-26T17:43:45.648Z,56.83
2022-11-26T17:46:18.544Z,59.13
2022-11-26T17:48:46.447Z,68.37
2022-11-26T17:51:15.311Z,74.53
2022-11-26T17:53:43.277Z,73.07
2022-11-26T17:56:17.822Z,74.47
2022-11-26T17:58:46.723Z,70.60
2022-11-26T18:01:15.467Z,95.43
2022-11-26T18:03:42.973Z,83.53
2022-11-26T18:06:33.751Z,84.90
2022-11-26T18:09:00.371Z,84.97
2022-11-26T18:11:52.058Z,87.13
2022-11-26T18:14:20.873Z,77.53
2022-11-26T18:16:47.737Z,86.73
2022-11-26T18:19:18.079Z,74.73
2022-11-26T18:21:45.310Z,71.10
2022-11-26T18:24:13.184Z,69.40
2022-11-26T18:26:40.031Z,77.37
2022-11-26T18:29:07.302Z,76.07
2022-11-26T18:31:39.086Z,74.90
2022-11-26T18:34:08.209Z,72.13
2022-11-26T18:36:34.558Z,67.00
2022-11-26T18:39:03.710Z,77.33
2022-11-26T18:41:30.679Z,83.03
2022-11-26T18:43:57.438Z,82.97
2022-11-26T18:46:23.871Z,81.90
2022-11-26T18:48:50.512Z,79.47
2022-11-26T18:51:17.984Z,87.87
2022-11-26T18:53:44.767Z,83.63
2022-11-26T18:56:14.863Z,74.90
2022-11-26T18:58:45.559Z,64.67
2022-11-26T19:01:16.748Z,62.60
2022-11-26T19:03:44.470Z,68.33
2022-11-26T19:06:16.696Z,74.57
2022-11-26T19:08:44.064Z,91.03
2022-11-26T19:11:13.285Z,75.10
2022-11-26T19:13:40.243Z,74.07
2022-11-26T19:16:13.034Z,87.70
2022-11-26T19:18:44.244Z,101.27
2022-11-26T19:21:24.470Z,105.50
2022-11-26T19:23:52.758Z,83.20
2022-11-26T19:26:20.147Z,78.90
2022-11-26T19:28:47.084Z,77.67
2022-11-26T19:31:16.276Z,74.83
2022-11-26T19:33:45.847Z,72.80
2022-11-26T19:36:15.619Z,80.90
2022-11-26T19:38:45.058Z,75.53
2022-11-26T19:41:12.689Z,81.73
2022-11-26T19:43:41.691Z,75.17
2022-11-26T19:46:13.964Z,85.33
2022-11-26T19:48:42.890Z,71.30
2022-11-26T19:51:10.931Z,77.43
2022-11-26T19:53:37.913Z,79.50
2022-11-26T19:56:11.866Z,88.57
2022-11-26T19:58:38.537Z,87.77
2022-11-26T20:01:06.878Z,85.13
2022-11-26T20:03:37.507Z,84.90
2022-11-26T20:06:07.202Z,84.97
2022-11-26T20:08:36.959Z,82.47
2022-11-26T20:11:05.377Z,81.40
2022-11-26T20:13:35.449Z,89.73
2022-11-26T20:16:07.004Z,105.23
2022-11-26T20:18:37.265Z,90.97
2022-11-26T20:21:07.291Z,88.80
2022-11-26T20:23:34.007Z,81.90
2022-11-26T20:26:01.420Z,74.20
2022-11-26T20:28:28.557Z,80.17
2022-11-26T20:30:55.405Z,81.03
2022-11-26T20:33:22.382Z,75.00
2022-11-26T20:35:49.514Z,78.80
2022-11-26T20:38:17.064Z,78.97
2022-11-26T20:40:44.985Z,81.73
2022-11-26T20:43:12.403Z,92.83
2022-11-26T20:45:39.234Z,78.47
2022-11-26T20:48:06.254Z,78.63
2022-11-26T20:50:36.904Z,81.07
2022-11-26T20:53:05.056Z,84.77
2022-11-26T20:55:31.887Z,94.50
2022-11-26T20:57:59.186Z,96.13
2022-11-26T21:00:27.677Z,98.50
2022-11-26T21:02:54.653Z,88.57
2022-11-26T21:05:22.531Z,95.60
2022-11-26T21:07:51.308Z,94.07
2022-11-26T21:10:20.692Z,86.60
2022-11-26T21:12:47.448Z,82.07
2022-11-26T21:15:15.040Z,79.33
2022-11-26T21:17:41.547Z,78.07
2022-11-26T21:20:08.685Z,76.37
2022-11-26T21:22:36.898Z,83.13
2022-11-26T21:25:03.228Z,76.57
2022-11-26T21:27:32.998Z,84.80
2022-11-26T21:29:59.192Z,76.33
2022-11-26T21:32:25.726Z,80.20
2022-11-26T21:34:52.573Z,77.70
2022-11-26T21:37:20.225Z,81.07
2022-11-26T21:39:46.881Z,73.33
2022-11-26T21:42:13.728Z,84.53
2022-11-26T21:44:39.934Z,78.33
2022-11-26T21:47:07.745Z,75.70
2022-11-26T21:49:35.200Z,72.50
2022-11-26T21:52:02.452Z,62.10
2022-11-26T21:54:28.904Z,66.47
2022-11-26T21:56:55.570Z,66.70
2022-11-26T21:59:21.722Z,63.13
2022-11-26T22:01:49.067Z,64.50
2022-11-26T22:04:18.096Z,64.57
2022-11-26T22:06:47.016Z,67.43
2022-11-26T22:09:15.512Z,62.70
2022-11-26T22:11:44.282Z,63.47
2022-11-26T22:14:14.183Z,65.10
2022-11-26T22:16:41.566Z,63.80
2022-11-26T22:19:10.539Z,67.43
2022-11-26T22:21:39.624Z,62.07
2022-11-26T22:24:09.185Z,59.27
2022-11-26T22:26:35.992Z,59.77
2022-11-26T22:29:03.433Z,69.83
2022-11-26T22:31:32.942Z,68.93
2022-11-26T22:34:02.792Z,62.83
2022-11-26T22:36:29.969Z,61.53
2022-11-26T22:38:57.932Z,89.57
2022-11-26T22:41:25.216Z,79.00
2022-11-26T22:43:51.728Z,81.40
2022-11-26T22:46:20.335Z,85.63
2022-11-26T22:48:55.272Z,78.77
2022-11-26T22:51:23.598Z,77.57
2022-11-26T22:53:52.733Z,79.40
2022-11-26T22:56:20.077Z,74.30
2022-11-26T22:58:46.698Z,83.90
2022-11-26T23:01:33.608Z,72.13
2022-11-26T23:04:01.602Z,79.53
2022-11-26T23:06:29.685Z,72.73
2022-11-26T23:08:57.861Z,77.50
2022-11-26T23:11:34.385Z,78.63
2022-11-26T23:14:06.454Z,71.97
2022-11-26T23:16:34.157Z,74.43
2022-11-26T23:19:00.366Z,78.70
2022-11-26T23:21:39.369Z,78.37
2022-11-26T23:24:06.690Z,70.80
2022-11-26T23:26:35.358Z,78.30
2022-11-26T23:29:03.510Z,80.67
2022-11-26T23:31:38.393Z,83.97
2022-11-26T23:34:05.853Z,76.00
2022-11-26T23:36:33.293Z,77.20
2022-11-26T23:39:01.200Z,73.13
2022-11-26T23:41:28.534Z,68.50
2022-11-26T23:43:55.441Z,67.53
2022-11-26T23:46:24.870Z,70.83
2022-11-26T23:48:51.825Z,71.33
2022-11-26T23:51:23.989Z,63.97
2022-11-26T23:53:50.993Z,67.37
2022-11-26T23:56:21.372Z,57.63
2022-11-26T23:58:49.301Z,64.30
